createdAt,value
2022-07-29T00:00:58.656Z,95281.88
2022-07-29T00:04:41.511Z,95273.31
2022-07-29T00:08:24.298Z,95278.13
2022-07-29T00:12:10.170Z,95277.59
2022-07-29T00:15:53.130Z,95273.28
2022-07-29T00:19:36.182Z,95283.44
2022-07-29T00:23:18.930Z,95264.47
2022-07-29T00:27:02.005Z,95257.78
2022-07-29T00:30:46.138Z,95262.59
2022-07-29T00:34:46.471Z,95255.91
2022-07-29T00:38:29.209Z,95271.66
2022-07-29T00:42:12.016Z,95259.38
2022-07-29T00:45:56.166Z,95259.91
2022-07-29T00:49:39.321Z,95243.91
2022-07-29T00:53:22.305Z,95241.75
2022-07-29T00:57:06.604Z,95231.59
2022-07-29T01:00:49.703Z,95215.59
2022-07-29T01:04:34.452Z,95213.97
2022-07-29T01:08:18.165Z,95216.66
2022-07-29T01:12:01.296Z,95219.34
2022-07-29T01:15:49.168Z,95215.63
2022-07-29T01:19:50.340Z,95212.91
2022-07-29T01:23:49.089Z,95222.25
2022-07-29T01:27:41.405Z,95220.41
2022-07-29T01:31:32.578Z,95218.53
2022-07-29T01:35:21.374Z,95219.34
2022-07-29T01:39:08.892Z,95213.47
2022-07-29T01:42:54.129Z,95212.38
2022-07-29T01:46:41.107Z,95207.06
2022-07-29T01:50:29.129Z,95210.78
2022-07-29T01:54:15.748Z,95210.53
2022-07-29T01:57:59.867Z,95207.59
2022-07-29T02:01:45.896Z,95202.25
2022-07-29T02:05:29.694Z,95200.63
2022-07-29T02:09:14.466Z,95193.16
2022-07-29T02:12:58.443Z,95194.19
2022-07-29T02:16:43.531Z,95191.56
2022-07-29T02:20:27.638Z,95191.81
2022-07-29T02:24:14.095Z,95185.16
2022-07-29T02:27:57.709Z,95178.72
2022-07-29T02:31:44.455Z,95173.91
2022-07-29T02:35:27.884Z,95162.94
2022-07-29T02:39:18.262Z,95166.44
2022-07-29T02:43:01.628Z,95172.03
2022-07-29T02:46:50.300Z,95165.34
2022-07-29T02:50:36.916Z,95165.06
2022-07-29T02:54:28.848Z,95171.19
2022-07-29T02:58:16.497Z,95159.41
2022-07-29T03:02:01.697Z,95162.63
2022-07-29T03:05:44.574Z,95153.00
2022-07-29T03:09:27.583Z,95161.75
2022-07-29T03:13:10.565Z,95163.59
2022-07-29T03:16:56.616Z,95157.72
2022-07-29T03:20:41.510Z,95165.75
2022-07-29T03:24:28.957Z,95171.09
2022-07-29T03:28:11.811Z,95166.81
2022-07-29T03:31:54.928Z,95171.59
2022-07-29T03:35:38.107Z,95169.47
2022-07-29T03:39:25.422Z,95163.59
2022-07-29T03:43:10.326Z,95166.25
2022-07-29T03:46:55.227Z,95164.13
2022-07-29T03:50:38.072Z,95169.97
2022-07-29T03:54:22.357Z,95175.81
2022-07-29T03:58:05.441Z,95171.53
2022-07-29T04:01:48.841Z,95163.00
2022-07-29T04:05:31.850Z,95171.53
2022-07-29T04:09:14.677Z,95171.81
2022-07-29T04:12:58.822Z,95179.03
2022-07-29T04:16:41.621Z,95176.91
2022-07-29T04:20:24.470Z,95172.66
2022-07-29T04:24:07.952Z,95173.72
2022-07-29T04:28:02.679Z,95188.69
2022-07-29T04:31:46.855Z,95190.03
2022-07-29T04:35:29.724Z,95190.09
2022-07-29T04:39:12.466Z,95201.31
2022-07-29T04:42:55.242Z,95208.81
2022-07-29T04:46:38.185Z,95218.97
2022-07-29T04:50:22.355Z,95203.78
2022-07-29T04:54:05.357Z,95211.78
2022-07-29T04:57:48.130Z,95209.13
2022-07-29T05:01:30.959Z,95217.41
2022-07-29T05:05:13.871Z,95217.69
2022-07-29T05:08:59.331Z,95218.75
2022-07-29T05:12:42.167Z,95221.69
2022-07-29T05:16:24.954Z,95223.03
2022-07-29T05:20:09.221Z,95214.47
2022-07-29T05:23:52.024Z,95221.94
2022-07-29T05:27:36.149Z,95216.50
2022-07-29T05:31:18.936Z,95233.03
2022-07-29T05:35:01.851Z,95232.44
2022-07-29T05:38:44.573Z,95242.66
2022-07-29T05:42:27.650Z,95237.31
2022-07-29T05:46:11.829Z,95241.56
2022-07-29T05:49:54.961Z,95242.53
2022-07-29T05:53:38.208Z,95244.66
2022-07-29T05:57:22.018Z,95239.38
2022-07-29T06:01:07.279Z,95247.06
2022-07-29T06:04:51.528Z,95244.16
2022-07-29T06:08:34.905Z,95239.97
2022-07-29T06:12:17.676Z,95242.72
2022-07-29T06:16:00.505Z,95241.69
2022-07-29T06:19:43.291Z,95242.25
2022-07-29T06:23:27.403Z,95247.94
2022-07-29T06:27:10.768Z,95250.31
2022-07-29T06:30:53.561Z,95255.69
2022-07-29T06:34:36.394Z,95258.84
2022-07-29T06:38:31.798Z,95247.66
2022-07-29T06:42:18.325Z,95259.69
2022-07-29T06:46:02.326Z,95255.63
2022-07-29T06:49:45.247Z,95260.44
2022-07-29T06:53:31.448Z,95261.75
2022-07-29T06:57:14.199Z,95258.78
2022-07-29T07:00:58.769Z,95274.81
2022-07-29T07:04:41.582Z,95276.13
2022-07-29T07:08:24.745Z,95272.06
2022-07-29T07:12:07.941Z,95271.47
2022-07-29T07:15:51.768Z,95269.38
2022-07-29T07:19:36.108Z,95267.81
2022-07-29T07:23:18.917Z,95267.31
2022-07-29T07:27:01.731Z,95268.38
2022-07-29T07:30:44.507Z,95266.47
2022-07-29T07:34:29.739Z,95256.25
2022-07-29T07:38:14.091Z,95264.50
2022-07-29T07:41:56.881Z,95262.31
2022-07-29T07:45:41.346Z,95280.78
2022-07-29T07:49:24.307Z,95274.50
2022-07-29T07:53:07.180Z,95274.50
2022-07-29T07:56:53.333Z,95274.50
2022-07-29T08:00:36.382Z,95261.56
2022-07-29T08:04:25.011Z,95270.06
2022-07-29T08:08:10.272Z,95272.66
2022-07-29T08:11:54.925Z,95279.63
2022-07-29T08:15:37.705Z,95268.25
2022-07-29T08:19:20.519Z,95271.69
2022-07-29T08:23:03.507Z,95283.56
2022-07-29T08:26:46.534Z,95278.59
2022-07-29T08:30:30.696Z,95275.91
2022-07-29T08:34:13.637Z,95265.47
2022-07-29T08:37:57.785Z,95274.69
2022-07-29T08:41:40.777Z,95265.38
2022-07-29T08:45:47.724Z,95272.06
2022-07-29T08:49:31.249Z,95262.13
2022-07-29T08:53:15.462Z,95257.34
2022-07-29T08:57:00.761Z,95277.69
2022-07-29T09:00:47.192Z,95278.69
2022-07-29T09:04:36.452Z,95288.88
2022-07-29T09:08:21.032Z,95279.94
2022-07-29T09:12:04.980Z,95282.91
2022-07-29T09:15:49.160Z,95289.66
2022-07-29T09:19:34.433Z,95294.50
2022-07-29T09:23:23.958Z,95289.34
2022-07-29T09:27:13.325Z,95277.78
2022-07-29T09:31:00.128Z,95272.03
2022-07-29T09:34:42.890Z,95276.41
2022-07-29T09:38:25.645Z,95273.78
2022-07-29T09:42:08.449Z,95276.63
2022-07-29T09:45:51.197Z,95283.22
2022-07-29T09:49:35.669Z,95275.03
2022-07-29T09:53:32.708Z,95279.75
2022-07-29T09:57:30.591Z,95267.84
2022-07-29T10:01:14.459Z,95276.63
2022-07-29T10:04:58.636Z,95280.28
2022-07-29T10:08:43.638Z,95284.41
2022-07-29T10:12:26.632Z,95280.63
2022-07-29T10:16:09.738Z,95273.72
2022-07-29T10:19:52.539Z,95275.41
2022-07-29T10:23:46.517Z,95268.84
2022-07-29T10:27:30.120Z,95276.53
2022-07-29T10:31:21.480Z,95265.88
2022-07-29T10:35:14.350Z,95273.28
2022-07-29T10:39:03.700Z,95268.56
2022-07-29T10:42:46.919Z,95262.47
2022-07-29T10:46:31.066Z,95258.69
2022-07-29T10:50:17.414Z,95261.22
2022-07-29T10:54:05.894Z,95258.94
2022-07-29T10:58:13.168Z,95257.16
2022-07-29T11:02:10.834Z,95267.34
2022-07-29T11:05:59.878Z,95253.78
2022-07-29T11:09:46.377Z,95256.00
2022-07-29T11:13:55.960Z,95253.00
2022-07-29T11:18:14.990Z,95257.78
2022-07-29T11:22:00.268Z,95247.34
2022-07-29T11:25:52.410Z,95243.66
2022-07-29T11:29:39.908Z,95237.19
2022-07-29T11:33:54.542Z,95232.63
2022-07-29T11:37:33.683Z,95231.75
2022-07-29T11:41:28.718Z,95232.19
2022-07-29T11:49:21.995Z,95230.34
2022-07-29T11:53:12.216Z,95230.97
2022-07-29T11:56:56.671Z,95225.22
2022-07-29T12:00:41.116Z,95231.34
2022-07-29T12:04:24.859Z,95219.94
2022-07-29T12:07:03.939Z,95228.75
2022-07-29T12:08:12.748Z,95215.94
2022-07-29T12:12:05.269Z,95212.53
2022-07-29T12:15:54.731Z,95211.03
2022-07-29T12:19:44.656Z,95212.63
2022-07-29T12:23:29.369Z,95208.59
2022-07-29T12:27:29.517Z,95204.78
2022-07-29T12:31:41.925Z,95210.53
2022-07-29T12:35:20.707Z,95210.63
2022-07-29T12:39:03.942Z,95199.53
2022-07-29T12:43:10.188Z,95193.72
2022-07-29T12:47:04.108Z,95195.06
2022-07-29T12:50:58.095Z,95198.41
2022-07-29T12:54:48.741Z,95199.75
2022-07-29T12:58:35.693Z,95200.81
2022-07-29T13:02:24.191Z,95206.03
2022-07-29T13:06:07.323Z,95209.06
2022-07-29T13:09:50.282Z,95208.88
2022-07-29T13:13:34.628Z,95211.16
2022-07-29T13:17:18.247Z,95208.09
2022-07-29T13:21:12.882Z,95205.16
2022-07-29T13:24:57.423Z,95209.06
2022-07-29T13:28:44.098Z,95212.63
2022-07-29T13:32:28.570Z,95208.59
2022-07-29T13:36:11.915Z,95213.47
2022-07-29T13:39:55.237Z,95207.28
2022-07-29T13:43:38.047Z,95206.56
2022-07-29T13:47:22.824Z,95202.59
2022-07-29T13:51:15.671Z,95203.38
2022-07-29T13:54:58.649Z,95191.72
2022-07-29T13:58:41.514Z,95195.78
2022-07-29T14:02:26.280Z,95192.59
2022-07-29T14:06:09.247Z,95189.94
2022-07-29T14:09:52.209Z,95184.06
2022-07-29T14:13:35.055Z,95185.53
2022-07-29T14:17:17.923Z,95178.22
2022-07-29T14:21:02.354Z,95181.22
2022-07-29T14:24:45.336Z,95177.66
2022-07-29T14:28:28.112Z,95177.44
2022-07-29T14:32:12.413Z,95173.25
2022-07-29T14:35:55.230Z,95178.75
2022-07-29T14:39:45.393Z,95174.06
2022-07-29T14:43:28.296Z,95173.88
2022-07-29T14:47:11.276Z,95196.00
2022-07-29T14:50:54.231Z,95191.78
2022-07-29T14:54:37.010Z,95193.31
2022-07-29T14:58:23.220Z,95193.00
2022-07-29T15:02:06.062Z,95197.78
2022-07-29T15:05:48.881Z,95205.25
2022-07-29T15:09:31.705Z,95203.25
2022-07-29T15:13:19.115Z,95202.97
2022-07-29T15:17:04.561Z,95204.22
2022-07-29T15:20:48.257Z,95196.00
2022-07-29T15:24:30.991Z,95184.75
2022-07-29T15:28:16.270Z,95191.88
2022-07-29T15:31:59.388Z,95180.91
2022-07-29T15:35:43.612Z,95188.31
2022-07-29T15:39:26.387Z,95192.13
2022-07-29T15:43:09.349Z,95196.25
2022-07-29T15:47:07.319Z,95201.69
2022-07-29T15:50:52.268Z,95208.19
2022-07-29T15:54:35.849Z,95220.28
2022-07-29T15:58:18.902Z,95220.66
2022-07-29T16:02:01.773Z,95222.88
2022-07-29T16:05:44.782Z,95224.94
2022-07-29T16:09:28.949Z,95226.66
2022-07-29T16:13:11.697Z,95230.38
2022-07-29T16:17:03.702Z,95226.63
2022-07-29T16:20:46.578Z,95223.38
2022-07-29T16:24:31.551Z,95225.03
2022-07-29T16:28:14.352Z,95221.81
2022-07-29T16:31:57.165Z,95228.78
2022-07-29T16:35:40.424Z,95243.28
2022-07-29T16:39:23.237Z,95234.81
2022-07-29T16:43:07.374Z,95262.78
2022-07-29T16:46:50.158Z,95261.41
2022-07-29T16:50:39.490Z,95267.00
2022-07-29T16:54:22.259Z,95275.34
2022-07-29T16:58:05.318Z,95283.44
2022-07-29T17:01:49.993Z,95293.31
2022-07-29T17:05:52.511Z,95304.38
2022-07-29T17:09:37.415Z,95301.00
2022-07-29T17:13:20.431Z,95298.66
2022-07-29T17:17:05.507Z,95306.50
2022-07-29T17:20:56.584Z,95304.91
2022-07-29T17:24:40.289Z,95314.56
2022-07-29T17:28:23.825Z,95328.53
2022-07-29T17:32:09.039Z,95338.84
2022-07-29T17:36:09.349Z,95353.06
2022-07-29T17:39:52.132Z,95350.69
2022-07-29T17:43:35.039Z,95363.63
2022-07-29T17:47:19.193Z,95371.94
2022-07-29T17:51:01.979Z,95382.91
2022-07-29T17:54:44.728Z,95385.00
2022-07-29T17:58:33.100Z,95377.44
2022-07-29T18:02:16.055Z,95370.94
2022-07-29T18:06:00.786Z,95377.81
2022-07-29T18:09:43.586Z,95378.84
2022-07-29T18:13:30.190Z,95368.75
2022-07-29T18:17:13.450Z,95377.00
2022-07-29T18:20:56.531Z,95367.66
2022-07-29T18:24:40.612Z,95365.56
2022-07-29T18:28:23.558Z,95368.22
2022-07-29T18:32:07.345Z,95375.44
2022-07-29T18:36:04.176Z,95374.06
2022-07-29T18:39:59.371Z,95386.84
2022-07-29T18:43:42.360Z,95381.50
2022-07-29T18:47:25.268Z,95397.22
2022-07-29T18:51:15.223Z,95404.31
2022-07-29T18:55:01.221Z,95412.09
2022-07-29T18:58:43.985Z,95417.13
2022-07-29T19:02:27.849Z,95417.03
2022-07-29T19:06:10.902Z,95429.72
2022-07-29T19:09:56.661Z,95435.41
2022-07-29T19:13:41.072Z,95426.19
2022-07-29T19:17:24.115Z,95432.97
2022-07-29T19:21:06.968Z,95441.88
2022-07-29T19:24:50.356Z,95433.84
2022-07-29T19:28:33.351Z,95440.34
2022-07-29T19:32:24.863Z,95435.06
2022-07-29T19:36:08.534Z,95447.94
2022-07-29T19:39:51.350Z,95451.97
2022-07-29T19:43:50.994Z,95456.13
2022-07-29T19:47:36.513Z,95458.53
2022-07-29T19:51:19.386Z,95464.03
2022-07-29T19:55:07.341Z,95458.19
2022-07-29T19:58:50.705Z,95464.16
2022-07-29T20:02:36.647Z,95464.16
2022-07-29T20:06:19.626Z,95460.81
2022-07-29T20:10:02.587Z,95464.34
2022-07-29T20:13:45.397Z,95466.94
2022-07-29T20:17:28.914Z,95466.06
2022-07-29T20:21:13.051Z,95464.41
2022-07-29T20:24:55.797Z,95465.84
2022-07-29T20:28:40.160Z,95468.69
2022-07-29T20:32:23.112Z,95465.66
2022-07-29T20:36:06.601Z,95465.84
2022-07-29T20:39:50.865Z,95463.31
2022-07-29T20:43:35.973Z,95469.25
2022-07-29T20:47:22.395Z,95459.59
2022-07-29T20:51:05.196Z,95459.09
2022-07-29T20:54:47.973Z,95461.88
2022-07-29T20:58:32.643Z,95468.56
2022-07-29T21:02:17.354Z,95467.09
2022-07-29T21:06:00.511Z,95465.63
2022-07-29T21:09:43.515Z,95464.53
2022-07-29T21:13:26.531Z,95474.50
2022-07-29T21:17:10.957Z,95466.59
2022-07-29T21:20:53.953Z,95465.78
2022-07-29T21:24:36.750Z,95462.13
2022-07-29T21:28:29.489Z,95470.22
2022-07-29T21:32:13.647Z,95463.25
2022-07-29T21:36:46.118Z,95473.59
2022-07-29T21:40:14.362Z,95463.69
2022-07-29T21:43:59.947Z,95461.13
2022-07-29T21:47:45.637Z,95462.44
2022-07-29T21:51:28.494Z,95455.81
2022-07-29T21:55:11.710Z,95466.16
2022-07-29T21:58:54.596Z,95455.00
2022-07-29T22:02:37.521Z,95468.25
2022-07-29T22:06:21.637Z,95464.53
2022-07-29T22:10:05.127Z,95456.75
2022-07-29T22:13:48.097Z,95458.91
2022-07-29T22:17:30.868Z,95462.22
2022-07-29T22:21:13.746Z,95452.63
2022-07-29T22:24:57.847Z,95462.78
2022-07-29T22:28:40.650Z,95461.09
2022-07-29T22:32:23.508Z,95470.06
2022-07-29T22:36:06.792Z,95461.19
2022-07-29T22:39:49.523Z,95460.03
2022-07-29T22:43:33.629Z,95464.25
2022-07-29T22:47:16.525Z,95465.06
2022-07-29T22:50:59.276Z,95463.94
2022-07-29T22:54:42.062Z,95454.59
2022-07-29T22:58:24.823Z,95447.91
2022-07-29T23:02:09.006Z,95452.09
2022-07-29T23:05:51.970Z,95452.91
2022-07-29T23:09:34.729Z,95451.03
2022-07-29T23:13:18.058Z,95443.78
2022-07-29T23:17:01.040Z,95430.75
2022-07-29T23:20:46.630Z,95432.91
2022-07-29T23:24:29.405Z,95428.03
2022-07-29T23:28:13.284Z,95424.78
2022-07-29T23:31:56.190Z,95421.09
2022-07-29T23:35:38.954Z,95418.75
2022-07-29T23:39:23.163Z,95412.06
2022-07-29T23:43:08.896Z,95414.97
2022-07-29T23:46:51.804Z,95406.25
2022-07-29T23:50:34.508Z,95414.16
2022-07-29T23:54:17.264Z,95410.13
2022-07-29T23:58:02.922Z,95404.81
